sensor_id;sensor_type;location;lat;lon;timestamp;P1;durP1;ratioP1;P2;durP2;ratioP2
24650;SDS011;12783;48.824;8.662;2024-03-23T00:56:04;3.10;;;1.52;;
24650;SDS011;12783;48.824;8.662;2024-03-23T00:58:30;7.03;;;2.10;;
24650;SDS011;12783;48.824;8.662;2024-03-23T01:00:56;2.63;;;1.50;;
24650;SDS011;12783;48.824;8.662;2024-03-23T01:03:22;2.55;;;1.48;;
24650;SDS011;12783;48.824;8.662;2024-03-23T01:05:48;5.00;;;1.08;;
24650;SDS011;12783;48.824;8.662;2024-03-23T01:08:18;1.88;;;1.45;;
24650;SDS011;12783;48.824;8.662;2024-03-23T01:10:53;4.28;;;1.63;;
24650;SDS011;12783;48.824;8.662;2024-03-23T01:13:20;3.08;;;1.77;;
24650;SDS011;12783;48.824;8.662;2024-03-23T01:15:48;2.80;;;1.60;;
24650;SDS011;12783;48.824;8.662;2024-03-23T01:18:15;2.67;;;1.60;;
24650;SDS011;12783;48.824;8.662;2024-03-23T01:20:41;3.78;;;1.67;;
24650;SDS011;12783;48.824;8.662;2024-03-23T01:23:07;5.82;;;1.40;;
24650;SDS011;12783;48.824;8.662;2024-03-23T01:25:33;5.15;;;1.40;;
24650;SDS011;12783;48.824;8.662;2024-03-23T01:27:58;2.85;;;1.40;;
24650;SDS011;12783;48.824;8.662;2024-03-23T01:30:24;3.00;;;1.40;;
24650;SDS011;12783;48.824;8.662;2024-03-23T01:32:50;3.95;;;1.60;;
24650;SDS011;12783;48.824;8.662;2024-03-23T01:35:16;3.20;;;1.45;;
24650;SDS011;12783;48.824;8.662;2024-03-23T01:37:42;2.63;;;1.50;;
24650;SDS011;12783;48.824;8.662;2024-03-23T01:40:08;2.28;;;1.55;;
24650;SDS011;12783;48.824;8.662;2024-03-23T01:42:34;2.40;;;1.48;;
24650;SDS011;12783;48.824;8.662;2024-03-23T01:45:00;2.28;;;1.50;;
24650;SDS011;12783;48.824;8.662;2024-03-23T01:47:26;4.07;;;1.75;;
24650;SDS011;12783;48.824;8.662;2024-03-23T01:49:51;2.08;;;1.67;;
24650;SDS011;12783;48.824;8.662;2024-03-23T01:52:18;3.13;;;1.80;;
24650;SDS011;12783;48.824;8.662;2024-03-23T01:54:44;3.53;;;1.25;;
24650;SDS011;12783;48.824;8.662;2024-03-23T01:57:10;2.13;;;1.50;;
24650;SDS011;12783;48.824;8.662;2024-03-23T01:59:36;3.20;;;1.52;;
24650;SDS011;12783;48.824;8.662;2024-03-23T02:02:02;2.85;;;1.60;;
24650;SDS011;12783;48.824;8.662;2024-03-23T02:04:28;3.83;;;1.58;;
24650;SDS011;12783;48.824;8.662;2024-03-23T02:06:54;1.80;;;1.40;;
24650;SDS011;12783;48.824;8.662;2024-03-23T02:09:19;2.67;;;1.60;;
24650;SDS011;12783;48.824;8.662;2024-03-23T02:11:45;3.33;;;1.50;;
24650;SDS011;12783;48.824;8.662;2024-03-23T02:14:11;3.10;;;1.42;;
24650;SDS011;12783;48.824;8.662;2024-03-23T02:16:37;5.18;;;1.50;;
24650;SDS011;12783;48.824;8.662;2024-03-23T02:19:03;3.22;;;1.30;;
24650;SDS011;12783;48.824;8.662;2024-03-23T02:21:28;2.33;;;1.38;;
24650;SDS011;12783;48.824;8.662;2024-03-23T02:23:58;4.72;;;1.30;;
24650;SDS011;12783;48.824;8.662;2024-03-23T02:26:25;3.65;;;1.60;;
24650;SDS011;12783;48.824;8.662;2024-03-23T02:28:51;2.92;;;1.70;;
24650;SDS011;12783;48.824;8.662;2024-03-23T02:31:17;1.85;;;1.20;;
24650;SDS011;12783;48.824;8.662;2024-03-23T02:33:42;2.85;;;1.60;;
24650;SDS011;12783;48.824;8.662;2024-03-23T02:36:08;3.33;;;1.38;;
24650;SDS011;12783;48.824;8.662;2024-03-23T02:38:34;3.05;;;1.63;;
24650;SDS011;12783;48.824;8.662;2024-03-23T02:41:03;6.63;;;1.48;;
24650;SDS011;12783;48.824;8.662;2024-03-23T02:43:29;2.95;;;1.40;;
24650;SDS011;12783;48.824;8.662;2024-03-23T02:45:55;3.17;;;1.48;;
24650;SDS011;12783;48.824;8.662;2024-03-23T02:48:21;5.95;;;1.85;;
24650;SDS011;12783;48.824;8.662;2024-03-23T02:50:47;5.90;;;1.70;;
24650;SDS011;12783;48.824;8.662;2024-03-23T02:53:13;3.42;;;1.58;;
24650;SDS011;12783;48.824;8.662;2024-03-23T02:55:38;3.97;;;2.08;;
24650;SDS011;12783;48.824;8.662;2024-03-23T02:58:04;4.25;;;1.80;;
24650;SDS011;12783;48.824;8.662;2024-03-23T03:00:30;4.38;;;2.10;;
24650;SDS011;12783;48.824;8.662;2024-03-23T03:02:56;2.70;;;1.80;;
24650;SDS011;12783;48.824;8.662;2024-03-23T03:05:22;4.50;;;1.98;;
24650;SDS011;12783;48.824;8.662;2024-03-23T03:07:48;5.57;;;1.98;;
24650;SDS011;12783;48.824;8.662;2024-03-23T03:10:14;2.53;;;1.80;;
24650;SDS011;12783;48.824;8.662;2024-03-23T03:12:40;7.00;;;1.98;;
24650;SDS011;12783;48.824;8.662;2024-03-23T03:15:06;3.60;;;2.25;;
24650;SDS011;12783;48.824;8.662;2024-03-23T03:17:33;4.40;;;2.63;;
24650;SDS011;12783;48.824;8.662;2024-03-23T03:19:59;5.03;;;2.60;;
24650;SDS011;12783;48.824;8.662;2024-03-23T03:22:25;3.60;;;2.35;;
24650;SDS011;12783;48.824;8.662;2024-03-23T03:24:51;4.80;;;2.70;;
24650;SDS011;12783;48.824;8.662;2024-03-23T03:27:17;4.00;;;1.98;;
24650;SDS011;12783;48.824;8.662;2024-03-23T03:29:43;3.83;;;2.50;;
24650;SDS011;12783;48.824;8.662;2024-03-23T03:32:08;6.15;;;2.60;;
24650;SDS011;12783;48.824;8.662;2024-03-23T03:34:34;8.80;;;2.70;;
24650;SDS011;12783;48.824;8.662;2024-03-23T03:37:00;6.78;;;3.05;;
24650;SDS011;12783;48.824;8.662;2024-03-23T03:39:26;4.93;;;2.80;;
24650;SDS011;12783;48.824;8.662;2024-03-23T03:41:51;5.10;;;3.20;;
24650;SDS011;12783;48.824;8.662;2024-03-23T03:44:17;8.05;;;2.70;;
24650;SDS011;12783;48.824;8.662;2024-03-23T03:46:43;7.63;;;3.35;;
24650;SDS011;12783;48.824;8.662;2024-03-23T03:49:09;6.15;;;3.47;;
24650;SDS011;12783;48.824;8.662;2024-03-23T03:51:35;5.20;;;2.80;;
24650;SDS011;12783;48.824;8.662;2024-03-23T03:54:01;8.13;;;3.38;;
24650;SDS011;12783;48.824;8.662;2024-03-23T03:56:27;10.05;;;5.65;;
24650;SDS011;12783;48.824;8.662;2024-03-23T03:58:53;15.13;;;7.47;;
24650;SDS011;12783;48.824;8.662;2024-03-23T04:01:19;12.65;;;7.55;;
24650;SDS011;12783;48.824;8.662;2024-03-23T04:03:45;12.95;;;7.70;;
24650;SDS011;12783;48.824;8.662;2024-03-23T04:06:11;12.95;;;8.18;;
24650;SDS011;12783;48.824;8.662;2024-03-23T04:08:37;14.00;;;8.98;;
24650;SDS011;12783;48.824;8.662;2024-03-23T04:11:03;18.88;;;10.38;;
24650;SDS011;12783;48.824;8.662;2024-03-23T04:13:29;20.83;;;11.65;;
24650;SDS011;12783;48.824;8.662;2024-03-23T04:15:55;21.20;;;11.90;;
24650;SDS011;12783;48.824;8.662;2024-03-23T04:18:21;21.40;;;12.05;;
24650;SDS011;12783;48.824;8.662;2024-03-23T04:20:51;29.65;;;12.90;;
24650;SDS011;12783;48.824;8.662;2024-03-23T04:23:17;23.65;;;13.15;;
24650;SDS011;12783;48.824;8.662;2024-03-23T04:25:43;23.73;;;13.13;;
24650;SDS011;12783;48.824;8.662;2024-03-23T04:28:08;29.65;;;15.07;;
24650;SDS011;12783;48.824;8.662;2024-03-23T04:30:34;27.35;;;13.38;;
24650;SDS011;12783;48.824;8.662;2024-03-23T04:33:00;26.70;;;12.82;;
24650;SDS011;12783;48.824;8.662;2024-03-23T04:35:26;26.60;;;13.60;;
24650;SDS011;12783;48.824;8.662;2024-03-23T04:37:53;28.42;;;14.07;;
24650;SDS011;12783;48.824;8.662;2024-03-23T04:40:19;25.58;;;12.45;;
24650;SDS011;12783;48.824;8.662;2024-03-23T04:42:45;27.13;;;13.30;;
24650;SDS011;12783;48.824;8.662;2024-03-23T04:45:11;28.13;;;14.23;;
24650;SDS011;12783;48.824;8.662;2024-03-23T04:47:37;28.70;;;14.48;;
24650;SDS011;12783;48.824;8.662;2024-03-23T04:50:03;25.75;;;13.65;;
24650;SDS011;12783;48.824;8.662;2024-03-23T04:52:30;25.92;;;13.40;;
24650;SDS011;12783;48.824;8.662;2024-03-23T04:54:56;29.90;;;13.73;;
24650;SDS011;12783;48.824;8.662;2024-03-23T04:57:22;28.17;;;12.98;;
24650;SDS011;12783;48.824;8.662;2024-03-23T04:59:48;25.35;;;12.57;;
24650;SDS011;12783;48.824;8.662;2024-03-23T05:02:14;25.08;;;11.88;;
24650;SDS011;12783;48.824;8.662;2024-03-23T05:04:40;27.83;;;12.05;;
24650;SDS011;12783;48.824;8.662;2024-03-23T05:07:06;24.75;;;11.98;;
24650;SDS011;12783;48.824;8.662;2024-03-23T05:09:32;24.15;;;11.88;;
24650;SDS011;12783;48.824;8.662;2024-03-23T05:12:01;24.23;;;10.90;;
24650;SDS011;12783;48.824;8.662;2024-03-23T05:14:28;26.35;;;11.93;;
24650;SDS011;12783;48.824;8.662;2024-03-23T05:16:53;23.92;;;11.23;;
24650;SDS011;12783;48.824;8.662;2024-03-23T05:19:19;23.63;;;11.55;;
24650;SDS011;12783;48.824;8.662;2024-03-23T05:21:45;18.80;;;10.43;;
24650;SDS011;12783;48.824;8.662;2024-03-23T05:24:11;19.92;;;9.65;;
24650;SDS011;12783;48.824;8.662;2024-03-23T05:26:38;17.98;;;8.70;;
24650;SDS011;12783;48.824;8.662;2024-03-23T05:29:03;18.85;;;8.38;;
24650;SDS011;12783;48.824;8.662;2024-03-23T05:31:31;13.95;;;6.85;;
24650;SDS011;12783;48.824;8.662;2024-03-23T05:33:56;13.85;;;6.47;;
24650;SDS011;12783;48.824;8.662;2024-03-23T05:36:22;12.43;;;5.97;;
24650;SDS011;12783;48.824;8.662;2024-03-23T05:38:51;15.02;;;5.72;;
24650;SDS011;12783;48.824;8.662;2024-03-23T05:41:17;12.38;;;5.47;;
24650;SDS011;12783;48.824;8.662;2024-03-23T05:43:43;9.05;;;4.40;;
24650;SDS011;12783;48.824;8.662;2024-03-23T05:46:09;9.38;;;4.38;;
24650;SDS011;12783;48.824;8.662;2024-03-23T05:48:35;9.27;;;4.80;;
24650;SDS011;12783;48.824;8.662;2024-03-23T05:51:02;7.50;;;4.00;;
24650;SDS011;12783;48.824;8.662;2024-03-23T05:53:28;6.20;;;3.15;;
24650;SDS011;12783;48.824;8.662;2024-03-23T05:56:02;7.78;;;2.53;;
24650;SDS011;12783;48.824;8.662;2024-03-23T05:58:32;3.17;;;1.67;;
24650;SDS011;12783;48.824;8.662;2024-03-23T06:00:59;3.08;;;1.80;;
24650;SDS011;12783;48.824;8.662;2024-03-23T06:03:27;4.05;;;1.67;;
24650;SDS011;12783;48.824;8.662;2024-03-23T06:05:53;4.75;;;1.70;;
24650;SDS011;12783;48.824;8.662;2024-03-23T06:08:20;2.15;;;1.52;;
24650;SDS011;12783;48.824;8.662;2024-03-23T06:10:46;1.48;;;1.10;;
24650;SDS011;12783;48.824;8.662;2024-03-23T06:13:12;2.42;;;1.10;;
24650;SDS011;12783;48.824;8.662;2024-03-23T06:15:38;1.70;;;1.30;;
24650;SDS011;12783;48.824;8.662;2024-03-23T06:18:04;1.58;;;1.20;;
24650;SDS011;12783;48.824;8.662;2024-03-23T06:20:31;2.35;;;1.40;;
24650;SDS011;12783;48.824;8.662;2024-03-23T06:22:57;1.95;;;1.25;;
24650;SDS011;12783;48.824;8.662;2024-03-23T06:25:23;1.42;;;1.20;;
24650;SDS011;12783;48.824;8.662;2024-03-23T06:27:49;4.80;;;1.23;;
24650;SDS011;12783;48.824;8.662;2024-03-23T06:30:14;1.55;;;1.20;;
24650;SDS011;12783;48.824;8.662;2024-03-23T06:32:41;3.17;;;1.17;;
24650;SDS011;12783;48.824;8.662;2024-03-23T06:35:07;3.00;;;0.95;;
24650;SDS011;12783;48.824;8.662;2024-03-23T06:37:37;1.02;;;0.93;;
24650;SDS011;12783;48.824;8.662;2024-03-23T06:40:04;1.17;;;1.00;;
24650;SDS011;12783;48.824;8.662;2024-03-23T06:42:33;1.65;;;1.10;;
24650;SDS011;12783;48.824;8.662;2024-03-23T06:44:59;1.10;;;0.88;;
24650;SDS011;12783;48.824;8.662;2024-03-23T06:47:25;1.10;;;0.90;;
24650;SDS011;12783;48.824;8.662;2024-03-23T06:49:51;1.13;;;0.98;;
24650;SDS011;12783;48.824;8.662;2024-03-23T06:52:17;2.20;;;0.80;;
24650;SDS011;12783;48.824;8.662;2024-03-23T06:54:43;0.98;;;0.85;;
24650;SDS011;12783;48.824;8.662;2024-03-23T06:57:10;1.38;;;1.05;;
24650;SDS011;12783;48.824;8.662;2024-03-23T06:59:37;1.40;;;1.13;;
24650;SDS011;12783;48.824;8.662;2024-03-23T07:02:04;1.42;;;1.15;;
24650;SDS011;12783;48.824;8.662;2024-03-23T07:04:30;3.60;;;1.20;;
24650;SDS011;12783;48.824;8.662;2024-03-23T07:06:56;2.85;;;1.20;;
24650;SDS011;12783;48.824;8.662;2024-03-23T07:09:22;1.40;;;1.10;;
24650;SDS011;12783;48.824;8.662;2024-03-23T07:11:53;1.40;;;1.00;;
24650;SDS011;12783;48.824;8.662;2024-03-23T07:14:20;2.78;;;1.40;;
24650;SDS011;12783;48.824;8.662;2024-03-23T07:16:46;1.58;;;1.30;;
24650;SDS011;12783;48.824;8.662;2024-03-23T07:19:14;1.55;;;1.30;;
24650;SDS011;12783;48.824;8.662;2024-03-23T07:21:42;1.42;;;1.20;;
24650;SDS011;12783;48.824;8.662;2024-03-23T07:24:10;1.35;;;1.20;;
24650;SDS011;12783;48.824;8.662;2024-03-23T07:26:36;1.50;;;1.17;;
24650;SDS011;12783;48.824;8.662;2024-03-23T07:29:03;1.55;;;1.15;;
24650;SDS011;12783;48.824;8.662;2024-03-23T07:31:29;2.70;;;1.33;;
24650;SDS011;12783;48.824;8.662;2024-03-23T07:33:55;2.00;;;1.38;;
24650;SDS011;12783;48.824;8.662;2024-03-23T07:36:21;1.30;;;1.13;;
24650;SDS011;12783;48.824;8.662;2024-03-23T07:38:47;1.02;;;0.82;;
24650;SDS011;12783;48.824;8.662;2024-03-23T07:41:19;1.58;;;1.00;;
24650;SDS011;12783;48.824;8.662;2024-03-23T07:43:46;1.23;;;1.05;;
24650;SDS011;12783;48.824;8.662;2024-03-23T07:46:13;2.17;;;1.33;;
24650;SDS011;12783;48.824;8.662;2024-03-23T07:48:40;2.00;;;1.40;;
24650;SDS011;12783;48.824;8.662;2024-03-23T07:51:09;4.45;;;2.03;;
24650;SDS011;12783;48.824;8.662;2024-03-23T07:53:36;5.10;;;1.60;;
24650;SDS011;12783;48.824;8.662;2024-03-23T07:56:06;3.67;;;1.58;;
24650;SDS011;12783;48.824;8.662;2024-03-23T07:58:32;3.88;;;2.13;;
24650;SDS011;12783;48.824;8.662;2024-03-23T08:01:06;2.55;;;1.80;;
24650;SDS011;12783;48.824;8.662;2024-03-23T08:03:39;3.17;;;2.05;;
24650;SDS011;12783;48.824;8.662;2024-03-23T08:06:10;2.67;;;2.00;;
24650;SDS011;12783;48.824;8.662;2024-03-23T08:08:39;7.43;;;2.30;;
24650;SDS011;12783;48.824;8.662;2024-03-23T08:11:09;3.03;;;1.92;;
24650;SDS011;12783;48.824;8.662;2024-03-23T08:13:35;3.85;;;2.30;;
24650;SDS011;12783;48.824;8.662;2024-03-23T08:16:02;4.53;;;2.58;;
24650;SDS011;12783;48.824;8.662;2024-03-23T08:18:29;3.90;;;2.25;;
24650;SDS011;12783;48.824;8.662;2024-03-23T08:20:57;5.90;;;2.00;;
24650;SDS011;12783;48.824;8.662;2024-03-23T08:23:26;7.57;;;2.80;;
24650;SDS011;12783;48.824;8.662;2024-03-23T08:26:02;10.25;;;2.88;;
24650;SDS011;12783;48.824;8.662;2024-03-23T08:28:32;6.50;;;2.45;;
24650;SDS011;12783;48.824;8.662;2024-03-23T08:31:00;6.40;;;2.90;;
24650;SDS011;12783;48.824;8.662;2024-03-23T08:33:28;6.10;;;2.50;;
24650;SDS011;12783;48.824;8.662;2024-03-23T08:35:54;9.30;;;3.13;;
24650;SDS011;12783;48.824;8.662;2024-03-23T08:38:24;6.88;;;2.65;;
24650;SDS011;12783;48.824;8.662;2024-03-23T08:40:57;9.85;;;3.17;;
24650;SDS011;12783;48.824;8.662;2024-03-23T08:43:26;7.60;;;2.97;;
24650;SDS011;12783;48.824;8.662;2024-03-23T08:45:52;9.80;;;3.85;;
24650;SDS011;12783;48.824;8.662;2024-03-23T08:48:19;9.98;;;4.10;;
24650;SDS011;12783;48.824;8.662;2024-03-23T08:50:59;11.82;;;4.47;;
24650;SDS011;12783;48.824;8.662;2024-03-23T08:53:28;11.43;;;4.28;;
24650;SDS011;12783;48.824;8.662;2024-03-23T08:55:55;12.80;;;4.22;;
24650;SDS011;12783;48.824;8.662;2024-03-23T08:58:23;11.15;;;4.70;;
24650;SDS011;12783;48.824;8.662;2024-03-23T09:00:50;6.82;;;3.80;;
24650;SDS011;12783;48.824;8.662;2024-03-23T09:03:24;13.23;;;4.80;;
24650;SDS011;12783;48.824;8.662;2024-03-23T09:05:51;8.35;;;4.47;;
24650;SDS011;12783;48.824;8.662;2024-03-23T09:08:17;9.40;;;4.70;;
24650;SDS011;12783;48.824;8.662;2024-03-23T09:10:44;13.20;;;4.40;;
24650;SDS011;12783;48.824;8.662;2024-03-23T09:13:10;11.68;;;3.80;;
24650;SDS011;12783;48.824;8.662;2024-03-23T09:15:46;9.90;;;4.32;;
24650;SDS011;12783;48.824;8.662;2024-03-23T09:18:16;15.18;;;4.25;;
24650;SDS011;12783;48.824;8.662;2024-03-23T09:20:43;13.32;;;4.55;;
24650;SDS011;12783;48.824;8.662;2024-03-23T09:37:38;12.90;;;3.65;;
24650;SDS011;12783;48.824;8.662;2024-03-23T09:40:05;7.25;;;3.50;;
24650;SDS011;12783;48.824;8.662;2024-03-23T09:42:34;7.97;;;3.67;;
24650;SDS011;12783;48.824;8.662;2024-03-23T09:45:00;13.07;;;3.72;;
24650;SDS011;12783;48.824;8.662;2024-03-23T09:47:27;13.10;;;3.80;;
24650;SDS011;12783;48.824;8.662;2024-03-23T09:49:53;8.75;;;3.28;;
24650;SDS011;12783;48.824;8.662;2024-03-23T09:52:18;13.75;;;3.47;;
24650;SDS011;12783;48.824;8.662;2024-03-23T09:54:44;11.63;;;3.50;;
24650;SDS011;12783;48.824;8.662;2024-03-23T09:57:10;11.00;;;3.53;;
24650;SDS011;12783;48.824;8.662;2024-03-23T09:59:36;12.05;;;3.70;;
24650;SDS011;12783;48.824;8.662;2024-03-23T10:02:02;13.82;;;3.60;;
24650;SDS011;12783;48.824;8.662;2024-03-23T10:04:38;9.90;;;3.75;;
24650;SDS011;12783;48.824;8.662;2024-03-23T10:07:19;7.38;;;3.60;;
24650;SDS011;12783;48.824;8.662;2024-03-23T10:15:44;7.75;;;3.25;;
24650;SDS011;12783;48.824;8.662;2024-03-23T10:21:01;12.77;;;3.80;;
24650;SDS011;12783;48.824;8.662;2024-03-23T10:23:32;7.45;;;3.83;;
24650;SDS011;12783;48.824;8.662;2024-03-23T10:28:51;5.72;;;2.22;;
24650;SDS011;12783;48.824;8.662;2024-03-23T10:31:30;6.50;;;2.47;;
24650;SDS011;12783;48.824;8.662;2024-03-23T10:33:56;13.77;;;2.80;;
24650;SDS011;12783;48.824;8.662;2024-03-23T10:36:23;7.57;;;2.42;;
24650;SDS011;12783;48.824;8.662;2024-03-23T10:38:51;6.03;;;2.63;;
24650;SDS011;12783;48.824;8.662;2024-03-23T10:41:20;6.03;;;3.28;;
24650;SDS011;12783;48.824;8.662;2024-03-23T10:43:47;10.15;;;3.00;;
24650;SDS011;12783;48.824;8.662;2024-03-23T10:46:14;7.32;;;2.70;;
24650;SDS011;12783;48.824;8.662;2024-03-23T10:48:40;6.13;;;3.13;;
24650;SDS011;12783;48.824;8.662;2024-03-23T10:51:07;5.28;;;2.67;;
24650;SDS011;12783;48.824;8.662;2024-03-23T10:53:34;13.65;;;3.25;;
24650;SDS011;12783;48.824;8.662;2024-03-23T10:56:00;9.20;;;3.30;;
24650;SDS011;12783;48.824;8.662;2024-03-23T10:58:28;9.60;;;2.38;;
24650;SDS011;12783;48.824;8.662;2024-03-23T11:01:03;6.38;;;2.20;;
24650;SDS011;12783;48.824;8.662;2024-03-23T11:03:30;4.63;;;2.20;;
24650;SDS011;12783;48.824;8.662;2024-03-23T11:06:01;3.15;;;1.92;;
24650;SDS011;12783;48.824;8.662;2024-03-23T11:08:38;4.55;;;2.55;;
24650;SDS011;12783;48.824;8.662;2024-03-23T11:11:14;4.80;;;1.95;;
24650;SDS011;12783;48.824;8.662;2024-03-23T11:13:52;5.45;;;1.90;;
24650;SDS011;12783;48.824;8.662;2024-03-23T11:16:22;4.68;;;1.50;;
24650;SDS011;12783;48.824;8.662;2024-03-23T11:18:49;10.35;;;1.90;;
24650;SDS011;12783;48.824;8.662;2024-03-23T11:24:17;7.38;;;1.90;;
24650;SDS011;12783;48.824;8.662;2024-03-23T11:26:44;8.18;;;1.50;;
24650;SDS011;12783;48.824;8.662;2024-03-23T11:29:10;5.53;;;1.65;;
24650;SDS011;12783;48.824;8.662;2024-03-23T11:31:45;5.20;;;1.38;;
24650;SDS011;12783;48.824;8.662;2024-03-23T11:34:18;6.00;;;1.63;;
24650;SDS011;12783;48.824;8.662;2024-03-23T11:36:44;5.80;;;1.80;;
24650;SDS011;12783;48.824;8.662;2024-03-23T11:39:19;4.43;;;1.50;;
24650;SDS011;12783;48.824;8.662;2024-03-23T11:41:47;4.97;;;1.80;;
24650;SDS011;12783;48.824;8.662;2024-03-23T11:44:23;9.82;;;1.98;;
24650;SDS011;12783;48.824;8.662;2024-03-23T11:46:52;8.40;;;1.92;;
24650;SDS011;12783;48.824;8.662;2024-03-23T11:49:28;11.05;;;2.08;;
24650;SDS011;12783;48.824;8.662;2024-03-23T11:51:55;6.32;;;2.10;;
24650;SDS011;12783;48.824;8.662;2024-03-23T11:54:25;9.85;;;2.20;;
24650;SDS011;12783;48.824;8.662;2024-03-23T11:56:58;8.48;;;2.35;;
24650;SDS011;12783;48.824;8.662;2024-03-23T11:59:37;12.07;;;2.40;;
24650;SDS011;12783;48.824;8.662;2024-03-23T12:02:08;8.40;;;2.40;;
24650;SDS011;12783;48.824;8.662;2024-03-23T12:04:41;9.88;;;2.28;;
24650;SDS011;12783;48.824;8.662;2024-03-23T12:09:39;7.30;;;2.40;;
24650;SDS011;12783;48.824;8.662;2024-03-23T12:12:10;13.10;;;2.92;;
24650;SDS011;12783;48.824;8.662;2024-03-23T12:14:43;5.82;;;2.25;;
24650;SDS011;12783;48.824;8.662;2024-03-23T12:19:39;8.35;;;2.35;;
24650;SDS011;12783;48.824;8.662;2024-03-23T12:22:06;10.35;;;3.05;;
24650;SDS011;12783;48.824;8.662;2024-03-23T12:24:34;8.73;;;2.72;;
24650;SDS011;12783;48.824;8.662;2024-03-23T12:27:00;18.40;;;3.00;;
24650;SDS011;12783;48.824;8.662;2024-03-23T12:29:28;9.95;;;2.95;;
24650;SDS011;12783;48.824;8.662;2024-03-23T12:32:00;11.30;;;3.00;;
24650;SDS011;12783;48.824;8.662;2024-03-23T12:34:27;5.95;;;2.75;;
24650;SDS011;12783;48.824;8.662;2024-03-23T12:36:53;19.70;;;3.22;;
24650;SDS011;12783;48.824;8.662;2024-03-23T12:39:20;8.20;;;2.47;;
24650;SDS011;12783;48.824;8.662;2024-03-23T12:41:49;8.55;;;2.58;;
24650;SDS011;12783;48.824;8.662;2024-03-23T12:44:15;6.15;;;2.25;;
24650;SDS011;12783;48.824;8.662;2024-03-23T12:46:41;7.75;;;2.63;;
24650;SDS011;12783;48.824;8.662;2024-03-23T12:49:07;5.28;;;1.92;;
24650;SDS011;12783;48.824;8.662;2024-03-23T12:51:33;10.50;;;2.60;;
24650;SDS011;12783;48.824;8.662;2024-03-23T12:53:59;12.15;;;2.58;;
24650;SDS011;12783;48.824;8.662;2024-03-23T12:56:26;11.13;;;2.30;;
24650;SDS011;12783;48.824;8.662;2024-03-23T12:58:54;7.82;;;2.25;;
24650;SDS011;12783;48.824;8.662;2024-03-23T13:01:25;9.57;;;2.33;;
24650;SDS011;12783;48.824;8.662;2024-03-23T13:03:51;6.55;;;2.13;;
24650;SDS011;12783;48.824;8.662;2024-03-23T13:06:18;4.65;;;1.88;;
24650;SDS011;12783;48.824;8.662;2024-03-23T13:08:45;11.65;;;2.00;;
24650;SDS011;12783;48.824;8.662;2024-03-23T13:11:12;7.70;;;2.17;;
24650;SDS011;12783;48.824;8.662;2024-03-23T13:13:39;6.82;;;2.22;;
24650;SDS011;12783;48.824;8.662;2024-03-23T13:16:05;7.32;;;1.98;;
24650;SDS011;12783;48.824;8.662;2024-03-23T13:18:32;7.38;;;2.03;;
24650;SDS011;12783;48.824;8.662;2024-03-23T13:20:58;4.05;;;1.90;;
24650;SDS011;12783;48.824;8.662;2024-03-23T13:23:24;6.78;;;1.90;;
24650;SDS011;12783;48.824;8.662;2024-03-23T13:25:54;8.02;;;2.13;;
24650;SDS011;12783;48.824;8.662;2024-03-23T13:28:21;9.45;;;2.20;;
24650;SDS011;12783;48.824;8.662;2024-03-23T13:30:53;6.28;;;1.98;;
24650;SDS011;12783;48.824;8.662;2024-03-23T13:33:20;10.52;;;1.95;;
24650;SDS011;12783;48.824;8.662;2024-03-23T13:35:53;6.47;;;2.15;;
24650;SDS011;12783;48.824;8.662;2024-03-23T13:38:19;11.32;;;2.70;;
24650;SDS011;12783;48.824;8.662;2024-03-23T13:40:52;8.95;;;1.88;;
24650;SDS011;12783;48.824;8.662;2024-03-23T13:43:18;7.63;;;2.55;;
24650;SDS011;12783;48.824;8.662;2024-03-23T13:45:45;6.72;;;2.22;;
24650;SDS011;12783;48.824;8.662;2024-03-23T13:48:12;8.07;;;2.50;;
24650;SDS011;12783;48.824;8.662;2024-03-23T13:50:37;6.85;;;2.28;;
24650;SDS011;12783;48.824;8.662;2024-03-23T13:53:03;6.65;;;2.33;;
24650;SDS011;12783;48.824;8.662;2024-03-23T13:55:29;6.07;;;1.90;;
24650;SDS011;12783;48.824;8.662;2024-03-23T13:57:55;8.40;;;2.13;;
24650;SDS011;12783;48.824;8.662;2024-03-23T14:00:21;8.75;;;1.85;;
24650;SDS011;12783;48.824;8.662;2024-03-23T14:02:47;4.78;;;1.17;;
24650;SDS011;12783;48.824;8.662;2024-03-23T14:05:13;8.20;;;1.35;;
24650;SDS011;12783;48.824;8.662;2024-03-23T14:07:39;4.45;;;1.25;;
24650;SDS011;12783;48.824;8.662;2024-03-23T14:10:05;11.10;;;1.55;;
24650;SDS011;12783;48.824;8.662;2024-03-23T14:12:32;7.75;;;1.30;;
24650;SDS011;12783;48.824;8.662;2024-03-23T14:14:58;5.25;;;1.40;;
24650;SDS011;12783;48.824;8.662;2024-03-23T14:17:24;5.88;;;1.50;;
24650;SDS011;12783;48.824;8.662;2024-03-23T14:19:51;5.60;;;1.10;;
24650;SDS011;12783;48.824;8.662;2024-03-23T14:22:17;2.78;;;1.10;;
24650;SDS011;12783;48.824;8.662;2024-03-23T14:24:48;2.28;;;0.82;;
24650;SDS011;12783;48.824;8.662;2024-03-23T14:27:14;2.25;;;1.00;;
24650;SDS011;12783;48.824;8.662;2024-03-23T14:29:39;6.80;;;1.20;;
24650;SDS011;12783;48.824;8.662;2024-03-23T14:32:05;3.60;;;0.93;;
24650;SDS011;12783;48.824;8.662;2024-03-23T14:34:31;5.22;;;1.30;;
24650;SDS011;12783;48.824;8.662;2024-03-23T14:36:57;1.42;;;0.80;;
24650;SDS011;12783;48.824;8.662;2024-03-23T14:39:24;2.72;;;1.10;;
24650;SDS011;12783;48.824;8.662;2024-03-23T14:41:50;2.30;;;1.30;;
24650;SDS011;12783;48.824;8.662;2024-03-23T14:44:16;3.63;;;1.20;;
24650;SDS011;12783;48.824;8.662;2024-03-23T14:46:42;1.98;;;1.02;;
24650;SDS011;12783;48.824;8.662;2024-03-23T14:49:08;5.75;;;1.20;;
24650;SDS011;12783;48.824;8.662;2024-03-23T14:51:34;7.63;;;1.17;;
24650;SDS011;12783;48.824;8.662;2024-03-23T14:54:00;3.00;;;1.17;;
24650;SDS011;12783;48.824;8.662;2024-03-23T14:56:26;2.13;;;1.10;;
24650;SDS011;12783;48.824;8.662;2024-03-23T14:58:52;6.35;;;1.60;;
24650;SDS011;12783;48.824;8.662;2024-03-23T15:01:18;7.35;;;1.33;;
24650;SDS011;12783;48.824;8.662;2024-03-23T15:03:44;2.65;;;1.00;;
24650;SDS011;12783;48.824;8.662;2024-03-23T15:06:10;2.28;;;1.17;;
24650;SDS011;12783;48.824;8.662;2024-03-23T15:08:36;4.35;;;1.02;;
24650;SDS011;12783;48.824;8.662;2024-03-23T15:11:03;1.88;;;1.08;;
24650;SDS011;12783;48.824;8.662;2024-03-23T15:13:33;5.38;;;1.77;;
24650;SDS011;12783;48.824;8.662;2024-03-23T15:16:03;2.20;;;1.50;;
24650;SDS011;12783;48.824;8.662;2024-03-23T15:18:29;4.80;;;1.55;;
24650;SDS011;12783;48.824;8.662;2024-03-23T15:20:56;4.25;;;1.30;;
24650;SDS011;12783;48.824;8.662;2024-03-23T15:23:28;4.63;;;1.40;;
24650;SDS011;12783;48.824;8.662;2024-03-23T15:25:55;4.82;;;1.20;;
24650;SDS011;12783;48.824;8.662;2024-03-23T15:28:24;5.30;;;1.20;;
24650;SDS011;12783;48.824;8.662;2024-03-23T15:31:08;2.97;;;1.10;;
24650;SDS011;12783;48.824;8.662;2024-03-23T15:33:36;2.67;;;1.20;;
24650;SDS011;12783;48.824;8.662;2024-03-23T15:36:04;3.60;;;1.40;;
24650;SDS011;12783;48.824;8.662;2024-03-23T15:38:31;4.38;;;1.30;;
24650;SDS011;12783;48.824;8.662;2024-03-23T15:40:57;5.10;;;1.50;;
24650;SDS011;12783;48.824;8.662;2024-03-23T15:43:23;7.35;;;1.10;;
24650;SDS011;12783;48.824;8.662;2024-03-23T15:45:55;4.25;;;1.20;;
24650;SDS011;12783;48.824;8.662;2024-03-23T15:48:21;4.00;;;1.00;;
24650;SDS011;12783;48.824;8.662;2024-03-23T15:50:51;2.58;;;0.95;;
24650;SDS011;12783;48.824;8.662;2024-03-23T15:53:20;5.32;;;1.00;;
24650;SDS011;12783;48.824;8.662;2024-03-23T15:55:53;5.75;;;1.13;;
24650;SDS011;12783;48.824;8.662;2024-03-23T15:58:20;4.20;;;1.20;;
24650;SDS011;12783;48.824;8.662;2024-03-23T16:00:53;4.82;;;0.98;;
24650;SDS011;12783;48.824;8.662;2024-03-23T16:03:23;1.73;;;0.90;;
24650;SDS011;12783;48.824;8.662;2024-03-23T16:05:59;1.45;;;0.75;;
24650;SDS011;12783;48.824;8.662;2024-03-23T16:08:26;2.00;;;0.73;;
24650;SDS011;12783;48.824;8.662;2024-03-23T16:10:52;2.15;;;0.93;;
24650;SDS011;12783;48.824;8.662;2024-03-23T16:13:19;3.92;;;1.20;;